Weather at Taplejung Airport

Public forecast

Using degrees Celsius for public forecast. Weather courtesy of forecast.io.

Closest aviation weather report (METAR) to Taplejung Airport

Report is more than 6 hours old.

Closest report is Bagdogra Airport, 52.6 nm (97.4 km) SE. Retrieved 2020/10/28 12:30 UTC (13 hours ago):

VEBD 281230Z VRB01KT 6000 FEW030 24/21 Q1010 NOSIG

Closest aviation forecast (TAF) to Taplejung Airport

Forecast is more than 12 hours old.

Closest forecast is Bagdogra Airport, 52.6 nm (97.4 km) SE. Retrieved 2020/10/28 12:30 UTC (13 hours ago):

TAF VEBD 280930Z 2812/2824 VRB02KT 5000 BR FEW025